Time;durP1;ratioP1;P1;durP2;ratioP2;P2;SDS_P1;SDS_P2;PMS_P1;PMS_P2;Temp;Humidity;BMP_temperature;BMP_pressure;BME280_temperature;BME280_humidity;BME280_pressure;Samples;Min_cycle;Max_cycle;Signal;HPM_P1;HPM_P2
2021/05/01 00:04:46;;;;;;;21.15;14.55;;;;;;;8.38;63.03;98637.05;4461034;80;21147;-91
2021/05/01 00:10:47;;;;;;;29.42;17.52;;;;;;;8.32;63.20;98636.36;4459746;80;21144;-91
2021/05/01 00:16:49;;;;;;;24.77;17.45;;;;;;;8.27;63.42;98629.30;4464103;79;21545;-92
2021/05/01 00:22:50;;;;;;;30.27;17.32;;;;;;;8.27;63.73;98629.89;4497913;79;21565;-90
2021/05/01 00:28:52;;;;;;;21.70;15.30;;;;;;;8.21;63.82;98625.28;4494962;79;21120;-91
2021/05/01 00:34:53;;;;;;;25.65;15.80;;;;;;;8.16;64.31;98652.86;4499991;79;21124;-91
2021/05/01 00:40:55;;;;;;;24.45;15.28;;;;;;;8.12;64.43;98664.30;4496657;79;21133;-91
2021/05/01 00:46:56;;;;;;;25.43;16.45;;;;;;;8.05;64.58;98666.91;4489164;79;21815;-90
2021/05/01 00:52:58;;;;;;;23.92;16.90;;;;;;;7.98;65.07;98668.17;4493802;79;21105;-91
2021/05/01 00:59:00;;;;;;;26.40;17.98;;;;;;;7.83;65.22;98662.26;4502850;79;21133;-93
2021/05/01 01:05:01;;;;;;;26.40;17.20;;;;;;;7.56;65.39;98645.67;4496596;79;21136;-91
2021/05/01 01:11:04;;;;;;;25.15;16.40;;;;;;;7.41;65.90;98654.72;4492794;78;21108;-92
2021/05/01 01:17:05;;;;;;;28.45;18.37;;;;;;;7.39;66.23;98654.31;4491511;78;21141;-92
2021/05/01 01:23:07;;;;;;;30.30;19.37;;;;;;;7.34;66.08;98645.08;4480667;79;21098;-91
2021/05/01 01:29:13;;;;;;;27.45;18.35;;;;;;;7.24;66.45;98636.92;4488408;79;21129;-91
2021/05/01 01:35:14;;;;;;;30.27;21.05;;;;;;;7.20;66.68;98632.00;4491832;77;21128;-90
2021/05/01 01:41:16;;;;;;;40.58;26.35;;;;;;;7.29;67.05;98636.63;4493098;79;22016;-90
2021/05/01 01:47:17;;;;;;;37.90;26.25;;;;;;;7.37;67.08;98651.16;4488236;79;21153;-90
2021/05/01 01:53:20;;;;;;;30.72;21.17;;;;;;;7.39;67.30;98640.70;4495972;79;21581;-89
2021/05/01 01:59:21;;;;;;;32.88;21.17;;;;;;;7.41;67.28;98642.47;4492163;79;21148;-89
2021/05/01 02:05:23;;;;;;;31.80;21.62;;;;;;;7.49;67.50;98640.88;4496417;79;21133;-90
2021/05/01 02:11:27;;;;;;;32.15;20.72;;;;;;;7.57;67.41;98629.53;4481070;77;21160;-89
2021/05/01 02:17:28;;;;;;;27.40;18.95;;;;;;;7.62;67.53;98640.12;4491185;79;21124;-90
2021/05/01 02:23:30;;;;;;;33.25;21.42;;;;;;;7.72;67.55;98628.03;4488094;79;21117;-92
2021/05/01 02:29:31;;;;;;;32.83;20.77;;;;;;;7.81;67.65;98635.97;4499312;78;21160;-90
2021/05/01 02:35:38;;;;;;;38.83;22.10;;;;;;;7.83;67.91;98622.75;4502943;79;21141;-91
2021/05/01 02:41:39;;;;;;;25.47;19.30;;;;;;;7.87;67.99;98612.70;4498769;79;21137;-92
2021/05/01 02:47:40;;;;;;;27.75;20.55;;;;;;;7.90;68.07;98602.43;4498407;79;21144;-91
2021/05/01 02:53:42;;;;;;;27.27;19.52;;;;;;;7.95;68.27;98601.53;4495720;79;21596;-91
2021/05/01 02:59:43;;;;;;;30.43;20.27;;;;;;;7.97;68.47;98608.77;4503943;79;21130;-91
2021/05/01 03:05:45;;;;;;;25.82;17.73;;;;;;;7.95;68.59;98610.30;4484224;79;21569;-90
2021/05/01 03:11:46;;;;;;;28.35;19.50;;;;;;;7.94;69.22;98616.89;4486073;79;21136;-90
2021/05/01 03:17:48;;;;;;;26.52;19.73;;;;;;;8.00;68.86;98611.36;4420717;79;21138;-90
2021/05/01 03:23:51;;;;;;;29.67;20.92;;;;;;;7.88;69.26;98600.64;4362011;80;21122;-92
2021/05/01 03:29:53;;;;;;;30.45;20.27;;;;;;;7.71;69.43;98594.34;4353080;80;21131;-92
2021/05/01 03:35:56;;;;;;;32.73;21.15;;;;;;;7.64;70.34;98594.25;4366728;80;21597;-92
2021/05/01 03:42:00;;;;;;;31.82;23.47;;;;;;;7.55;70.49;98595.05;4378173;80;21134;-91
2021/05/01 03:48:01;;;;;;;29.23;21.15;;;;;;;7.47;71.29;98600.19;4372028;80;21168;-93
2021/05/01 03:54:03;;;;;;;36.88;24.60;;;;;;;7.40;71.50;98595.97;4353094;80;21705;-84
2021/05/01 04:00:06;;;;;;;38.13;25.75;;;;;;;7.41;71.66;98604.34;4340871;79;21752;-84
2021/05/01 04:06:09;;;;;;;34.70;24.15;;;;;;;7.30;71.95;98600.08;4351055;80;21387;-83
2021/05/01 04:12:10;;;;;;;34.95;25.17;;;;;;;7.20;72.12;98599.34;4345410;80;22300;-83
2021/05/01 04:18:13;;;;;;;39.53;25.60;;;;;;;7.19;72.80;98612.72;4344954;79;21576;-84
2021/05/01 04:24:15;;;;;;;29.52;22.32;;;;;;;7.20;73.08;98607.50;4426813;78;21161;-84
2021/05/01 04:30:17;;;;;;;36.70;24.85;;;;;;;7.28;73.60;98628.23;4434163;79;21304;-84
2021/05/01 04:36:18;;;;;;;37.60;25.30;;;;;;;7.23;73.87;98632.64;4433637;79;21414;-84
2021/05/01 04:42:20;;;;;;;41.15;26.80;;;;;;;7.31;73.58;98622.06;4434498;78;21279;-84
2021/05/01 04:48:22;;;;;;;41.23;25.45;;;;;;;7.23;73.63;98619.03;4424249;79;22050;-84
2021/05/01 04:54:23;;;;;;;39.78;26.73;;;;;;;7.26;74.44;98627.03;4430362;79;21172;-84
2021/05/01 05:00:26;;;;;;;37.08;25.23;;;;;;;7.35;74.38;98616.69;4427265;79;21172;-84
2021/05/01 05:06:27;;;;;;;34.25;24.67;;;;;;;7.35;74.75;98618.05;4424636;79;21658;-85
2021/05/01 05:12:28;;;;;;;34.83;24.52;;;;;;;7.49;74.93;98620.45;4428981;79;21149;-85
2021/05/01 05:18:30;;;;;;;39.30;25.50;;;;;;;7.62;74.85;98628.66;4438175;79;21177;-85
2021/05/01 05:24:32;;;;;;;36.68;24.32;;;;;;;7.53;74.77;98600.86;4432213;79;21590;-85
2021/05/01 05:30:33;;;;;;;37.65;25.52;;;;;;;7.48;75.17;98608.00;4435526;79;21713;-85
2021/05/01 05:36:35;;;;;;;39.23;25.60;;;;;;;7.51;75.74;98607.27;4432947;79;21322;-85
2021/05/01 05:42:37;;;;;;;34.70;24.65;;;;;;;7.50;75.63;98592.66;4438237;79;21304;-85
2021/05/01 05:48:39;;;;;;;35.50;24.15;;;;;;;7.50;75.98;98598.87;4434924;79;21571;-85
2021/05/01 05:54:41;;;;;;;37.38;25.43;;;;;;;7.68;76.14;98597.80;4427912;79;21192;-85
2021/05/01 06:00:42;;;;;;;44.03;27.55;;;;;;;7.73;76.03;98612.48;4437966;79;21699;-83
2021/05/01 06:07:04;;;;;;;45.38;29.25;;;;;;;7.57;75.98;98616.70;4438517;79;21637;-83
2021/05/01 06:13:07;;;;;;;43.35;26.52;;;;;;;7.44;76.21;98570.37;4415431;79;21768;-84
2021/05/01 06:19:10;;;;;;;38.85;25.62;;;;;;;7.41;76.86;98606.50;4448130;78;21196;-84
2021/05/01 06:25:12;;;;;;;38.88;26.97;;;;;;;7.54;76.73;98610.62;4439280;79;21164;-84
2021/05/01 06:31:13;;;;;;;38.10;27.87;;;;;;;7.48;76.80;98588.93;4437642;79;21172;-85
2021/05/01 06:37:16;;;;;;;34.85;25.48;;;;;;;7.43;77.02;98577.54;4445197;79;21137;-85
2021/05/01 06:50:12;;;;;;;28.98;25.02;;;;;;;7.44;77.94;98590.00;4401655;78;28332;-86
2021/05/01 06:56:15;;;;;;;35.00;26.97;;;;;;;7.79;78.60;98600.91;4385313;80;21160;-85
2021/05/01 07:02:19;;;;;;;34.90;24.63;;;;;;;7.94;78.12;98585.55;4389494;80;21724;-85
2021/05/01 07:08:20;;;;;;;34.18;24.00;;;;;;;7.96;78.09;98583.24;4376920;80;21161;-85
2021/05/01 07:14:26;;;;;;;35.55;25.08;;;;;;;7.92;78.04;98577.73;4385234;80;21315;-85
2021/05/01 07:20:27;;;;;;;36.83;24.32;;;;;;;;;;4354905;80;21185;-85
2021/05/01 07:26:31;;;;;;;40.15;27.50;;;;;;;7.93;78.52;98603.86;4399747;79;21641;-86
2021/05/01 07:32:36;;;;;;;35.40;26.37;;;;;;;8.10;78.38;98603.12;4390684;80;21276;-86
2021/05/01 07:38:41;;;;;;;38.80;24.90;;;;;;;8.16;78.93;98607.88;4381254;80;21197;-85
2021/05/01 07:44:44;;;;;;;35.33;26.25;;;;;;;8.11;78.49;98613.66;4374961;80;21917;-86
2021/05/01 07:50:47;;;;;;;40.15;29.60;;;;;;;8.19;78.67;98616.67;4388365;80;21311;-86
2021/05/01 07:56:49;;;;;;;36.93;25.92;;;;;;;8.28;78.93;98625.43;4381459;80;21585;-85
2021/05/01 08:02:50;;;;;;;35.05;25.37;;;;;;;8.30;78.64;98615.52;4382095;80;21568;-85
2021/05/01 08:08:52;;;;;;;39.05;27.02;;;;;;;8.35;78.97;98612.48;4382477;80;21156;-86
2021/05/01 08:14:53;;;;;;;35.80;26.05;;;;;;;8.31;78.94;98604.80;4377321;80;21175;-85
2021/05/01 08:20:55;;;;;;;35.25;26.33;;;;;;;8.38;78.97;98600.23;4382565;80;21147;-86
2021/05/01 08:26:56;;;;;;;35.03;26.37;;;;;;;8.42;79.25;98620.17;4383826;80;21161;-86
2021/05/01 08:32:58;;;;;;;36.60;26.33;;;;;;;8.49;79.51;98626.30;4381532;80;21145;-86
2021/05/01 08:38:59;;;;;;;36.85;27.05;;;;;;;8.51;79.06;98634.31;4385676;80;21196;-86
2021/05/01 08:45:06;;;;;;;39.15;27.77;;;;;;;8.55;79.45;98635.13;4374489;80;21165;-86
2021/05/01 08:51:07;;;;;;;32.93;22.00;;;;;;;8.62;79.37;98625.69;4297684;81;21193;-86
2021/05/01 08:57:26;;;;;;;39.53;28.92;;;;;;;8.72;79.35;98645.48;4251002;83;21340;-86
2021/05/01 09:03:27;;;;;;;44.75;32.85;;;;;;;8.79;79.41;98652.98;4265883;83;21371;-86
2021/05/01 09:09:36;;;;;;;43.45;31.15;;;;;;;8.81;79.36;98664.33;4311748;81;21343;-86
2021/05/01 09:15:38;;;;;;;42.53;30.88;;;;;;;8.84;79.37;98663.02;4274689;82;22350;-86
2021/05/01 09:21:39;;;;;;;46.13;33.42;;;;;;;8.90;79.29;98674.37;4287061;82;21172;-86
2021/05/01 09:27:41;;;;;;;42.23;29.95;;;;;;;8.94;79.26;98658.24;4280642;82;21134;-86
2021/05/01 09:33:51;;;;;;;42.88;31.15;;;;;;;8.95;79.50;98657.67;4317556;81;21660;-86
2021/05/01 09:39:59;;;;;;;48.00;34.08;;;;;;;9.04;79.61;98668.52;4323270;81;21145;-86
2021/05/01 09:46:13;;;;;;;55.10;33.73;;;;;;;9.15;79.34;98657.14;4272054;82;21159;-87
2021/05/01 09:52:16;;;;;;;41.70;30.35;;;;;;;9.30;79.71;98661.59;4249792;81;21601;-87
2021/05/01 09:58:30;;;;;;;41.70;33.10;;;;;;;9.76;79.73;98652.47;4349653;80;21195;-87
2021/05/01 10:04:32;;;;;;;35.95;26.10;;;;;;;10.25;79.41;98646.06;4347490;80;21172;-87
2021/05/01 10:10:41;;;;;;;39.60;26.90;;;;;;;10.82;79.24;98654.78;4272076;81;21602;-87
2021/05/01 10:16:53;;;;;;;34.70;27.10;;;;;;;11.10;79.15;98637.70;4272836;81;21243;-87
2021/05/01 10:22:58;;;;;;;32.15;24.37;;;;;;;11.20;78.74;98630.08;4275895;81;21288;-87
2021/05/01 10:29:00;;;;;;;32.58;24.77;;;;;;;11.72;78.52;98608.86;4241526;81;21295;-87
2021/05/01 10:35:02;;;;;;;34.63;26.65;;;;;;;12.11;77.57;98603.34;4260960;81;21790;-87
2021/05/01 10:41:17;;;;;;;35.75;28.25;;;;;;;11.88;77.47;98609.84;4264312;81;21320;-87
2021/05/01 10:47:19;;;;;;;31.17;24.32;;;;;;;11.90;77.46;98619.83;4276240;81;21230;-87
2021/05/01 10:53:21;;;;;;;36.17;27.75;;;;;;;11.75;77.08;98610.02;4273140;81;21161;-87
2021/05/01 10:59:29;;;;;;;35.63;27.17;;;;;;;11.36;77.36;98603.69;4273799;81;21644;-87
2021/05/01 11:05:32;;;;;;;29.95;22.85;;;;;;;11.29;77.55;98597.60;4279006;81;21288;-87
2021/05/01 11:11:41;;;;;;;35.13;27.95;;;;;;;11.54;77.62;98611.36;4273267;81;21500;-87
2021/05/01 11:17:53;;;;;;;34.00;27.35;;;;;;;11.88;77.33;98594.75;4283771;81;21732;-87
2021/05/01 11:23:56;;;;;;;37.78;28.62;;;;;;;12.08;76.53;98595.91;4279488;81;21299;-87
2021/05/01 11:29:58;;;;;;;35.20;26.35;;;;;;;12.25;76.50;98605.48;4268306;81;21186;-87
2021/05/01 11:36:00;;;;;;;35.78;27.07;;;;;;;12.39;76.33;98600.55;4267798;81;21304;-87
2021/05/01 11:42:02;;;;;;;31.30;26.48;;;;;;;12.59;76.07;98614.05;4268039;81;21161;-87
2021/05/01 11:48:07;;;;;;;35.90;26.52;;;;;;;12.56;75.95;98618.93;4258737;81;21297;-88
2021/05/01 11:54:47;;;;;;;33.33;25.92;;;;;;;12.58;75.43;98627.56;4281440;81;21357;-88
2021/05/01 12:00:49;;;;;;;40.03;27.80;;;;;;;12.63;75.82;98633.45;4258694;81;21600;-87
2021/05/01 12:06:55;;;;;;;41.02;30.70;;;;;;;12.85;75.37;98633.36;4270578;81;21347;-87
2021/05/01 12:13:08;;;;;;;44.25;32.33;;;;;;;12.86;74.99;98612.97;4236732;81;21176;-88
2021/05/01 12:19:23;;;;;;;37.65;32.45;;;;;;;13.01;74.52;98606.25;4391509;78;28298;-87
2021/05/01 12:25:35;;;;;;;38.33;30.27;;;;;;;13.42;74.46;98610.72;4389477;79;21152;-87
2021/05/01 12:31:46;;;;;;;37.03;30.80;;;;;;;13.55;73.71;98574.69;4390382;79;22253;-87
2021/05/01 12:37:48;;;;;;;34.27;27.93;;;;;;;13.96;73.06;98567.28;4392798;79;21249;-88
2021/05/01 12:43:51;;;;;;;39.35;30.72;;;;;;;14.35;73.41;98560.03;4390816;79;21371;-87
2021/05/01 12:50:01;;;;;;;41.83;32.28;;;;;;;14.49;72.70;98562.63;4386778;79;21196;-89
2021/05/01 12:56:33;;;;;;;38.42;30.32;;;;;;;14.49;72.25;98557.11;4510095;76;23032;-87
2021/05/01 13:02:31;;;;;;;36.53;29.12;;;;;;;14.30;71.86;98552.21;4417054;79;21303;-88
2021/05/01 13:08:35;;;;;;;40.25;31.35;;;;;;;14.27;72.20;98553.03;4411938;79;21177;-89
2021/05/01 13:14:48;;;;;;;37.25;29.27;;;;;;;14.15;72.00;98560.41;4388359;79;21169;-88
2021/05/01 13:21:10;;;;;;;36.48;29.23;;;;;;;14.35;71.71;98569.66;4412867;79;22232;-86
2021/05/01 13:27:13;;;;;;;36.25;29.40;;;;;;;14.39;71.16;98565.50;4410343;78;21456;-86
2021/05/01 13:33:15;;;;;;;34.53;26.90;;;;;;;14.26;71.30;98547.35;4414151;79;21187;-86
2021/05/01 13:39:24;;;;;;;39.83;31.35;;;;;;;14.30;71.09;98548.08;4409221;79;22156;-86
2021/05/01 13:45:25;;;;;;;41.90;32.70;;;;;;;14.37;71.07;98545.27;4409060;79;21223;-86
2021/05/01 13:51:32;;;;;;;39.20;31.80;;;;;;;14.17;70.84;98545.66;4410391;79;21185;-86
2021/05/01 13:57:34;;;;;;;;;;;;;;;14.07;71.26;98546.53;4421666;79;21207;-86
2021/05/01 14:03:35;;;;;;;39.35;31.33;;;;;;;14.16;70.80;98537.98;4421906;79;20242;-86
2021/05/01 14:09:36;;;;;;;40.03;30.90;;;;;;;14.10;70.87;98532.73;4391288;79;21325;-86
2021/05/01 14:15:38;;;;;;;39.40;31.62;;;;;;;14.17;70.65;98540.15;4414911;79;21639;-86
2021/05/01 14:21:39;;;;;;;41.83;32.40;;;;;;;14.03;70.89;98551.30;4416531;79;21333;-86
2021/05/01 14:27:48;;;;;;;41.85;32.20;;;;;;;14.11;70.98;98550.02;4418486;79;21310;-86
2021/05/01 14:33:58;;;;;;;40.95;32.15;;;;;;;14.26;71.03;98534.96;4410569;79;22424;-86
2021/05/01 14:40:00;;;;;;;47.35;34.73;;;;;;;14.41;71.12;98540.48;4418617;79;21228;-86
2021/05/01 14:46:24;;;;;;;41.00;32.10;;;;;;;14.59;70.44;98527.89;4412089;79;21723;-86
2021/05/01 14:52:35;;;;;;;36.03;29.63;;;;;;;14.53;70.11;98535.84;4419467;79;21489;-86
2021/05/01 14:58:52;;;;;;;49.70;36.48;;;;;;;14.63;70.41;98532.74;4421806;79;21342;-86
2021/05/01 15:05:06;;;;;;;41.68;32.08;;;;;;;14.52;69.95;98530.74;4420190;79;21161;-86
2021/05/01 15:11:16;;;;;;;44.83;33.63;;;;;;;14.52;70.24;98518.35;4416667;79;21358;-85
2021/05/01 15:17:18;;;;;;;50.58;37.20;;;;;;;14.58;70.20;98516.70;4415138;79;21187;-85
2021/05/01 15:23:28;;;;;;;51.00;36.42;;;;;;;14.38;70.05;98517.91;4417265;79;21172;-86
2021/05/01 15:29:29;;;;;;;43.68;30.55;;;;;;;14.11;70.34;98510.11;4414940;79;21353;-86
2021/05/01 15:35:31;;;;;;;43.42;32.75;;;;;;;13.99;70.42;98499.63;4414401;79;21199;-86
2021/05/01 15:41:32;;;;;;;52.05;37.60;;;;;;;14.11;70.16;98491.63;4414062;79;21137;-86
2021/05/01 15:47:34;;;;;;;48.80;36.83;;;;;;;14.19;70.32;98492.33;4413026;79;21350;-86
2021/05/01 15:53:35;;;;;;;46.95;35.43;;;;;;;14.10;70.25;98509.93;4415145;79;21730;-86
2021/05/01 15:59:40;;;;;;;44.05;35.73;;;;;;;13.99;70.54;98506.50;4416935;79;21176;-86
2021/05/01 16:05:41;;;;;;;50.08;36.65;;;;;;;14.03;70.45;98494.89;4419308;79;21192;-85
2021/05/01 16:11:43;;;;;;;50.17;37.42;;;;;;;14.15;70.28;98481.38;4412247;79;21181;-86
2021/05/01 16:17:46;;;;;;;50.28;35.30;;;;;;;14.20;70.28;98483.66;4412600;79;21207;-86
2021/05/01 16:23:47;;;;;;;40.17;32.35;;;;;;;14.20;70.30;98476.77;4415892;79;21739;-86
2021/05/01 16:29:50;;;;;;;47.25;35.08;;;;;;;14.28;70.23;98482.24;4416828;79;21341;-86
2021/05/01 16:35:51;;;;;;;41.70;33.75;;;;;;;14.00;70.25;98476.44;4421505;79;21200;-86
2021/05/01 16:41:53;;;;;;;43.45;34.38;;;;;;;13.99;70.15;98470.73;4412498;78;21195;-86
2021/05/01 16:47:54;;;;;;;42.38;32.48;;;;;;;13.91;70.21;98470.03;4418670;79;21785;-86
2021/05/01 16:53:57;;;;;;;42.05;31.15;;;;;;;13.77;70.31;98472.93;4417113;79;21850;-86
2021/05/01 17:00:05;;;;;;;44.75;34.75;;;;;;;13.65;70.66;98467.16;4408411;79;21326;-86
2021/05/01 17:06:06;;;;;;;47.88;36.08;;;;;;;13.49;70.79;98446.28;4406640;79;21199;-86
2021/05/01 17:12:08;;;;;;;48.95;37.20;;;;;;;13.36;71.07;98437.00;4412413;79;21208;-86
2021/05/01 17:18:11;;;;;;;45.38;33.33;;;;;;;13.26;71.12;98452.98;4403948;79;21180;-86
2021/05/01 17:24:13;;;;;;;45.15;35.20;;;;;;;13.20;71.45;98444.37;4410805;79;21200;-86
2021/05/01 17:30:15;;;;;;;57.25;42.35;;;;;;;13.11;72.08;98477.64;4405637;79;21204;-85
2021/05/01 17:36:18;;;;;;;67.42;45.43;;;;;;;13.02;72.13;98485.53;4407566;79;21243;-85
2021/05/01 17:42:19;;;;;;;62.60;43.98;;;;;;;12.99;72.13;98498.09;4405871;79;21215;-86
2021/05/01 17:48:21;;;;;;;69.97;48.58;;;;;;;12.99;72.45;98511.83;4408825;79;21191;-86
2021/05/01 17:54:23;;;;;;;75.05;50.92;;;;;;;12.87;73.11;98515.63;4405810;79;21172;-86
2021/05/01 18:00:27;;;;;;;69.00;45.98;;;;;;;12.57;73.83;98507.33;4407329;79;21846;-86
2021/05/01 18:06:30;;;;;;;77.87;51.88;;;;;;;12.49;74.52;98503.66;4400696;79;21184;-86
2021/05/01 18:12:32;;;;;;;74.85;51.70;;;;;;;12.37;74.51;98509.60;4409844;79;21183;-86
2021/05/01 18:18:34;;;;;;;73.20;49.73;;;;;;;12.28;75.46;98514.70;4410986;79;21164;-86
2021/05/01 18:24:35;;;;;;;81.50;57.33;;;;;;;12.18;75.50;98530.63;4406237;79;21211;-86
2021/05/01 18:30:37;;;;;;;86.67;58.02;;;;;;;12.09;75.80;98530.27;4382923;79;21314;-86
2021/05/01 18:36:38;;;;;;;111.20;66.67;;;;;;;12.03;76.37;98538.69;4404407;78;21208;-86
2021/05/01 18:42:43;;;;;;;81.75;54.00;;;;;;;12.00;76.71;98537.52;4407492;79;21203;-86
2021/05/01 18:48:46;;;;;;;112.85;63.63;;;;;;;11.97;76.71;98519.12;4405695;79;21219;-86
2021/05/01 18:54:47;;;;;;;151.53;79.97;;;;;;;11.94;77.19;98538.31;4279332;79;10000447;-86
2021/05/01 19:00:50;;;;;;;110.85;60.50;;;;;;;11.93;77.01;98540.27;4400018;79;21712;-86
2021/05/01 19:06:51;;;;;;;102.20;57.88;;;;;;;11.92;77.26;98538.71;4407539;79;21378;-84
2021/05/01 19:13:02;;;;;;;70.75;46.40;;;;;;;11.93;77.27;98522.44;4400162;79;21203;-85
2021/05/01 19:19:07;;;;;;;72.95;48.08;;;;;;;11.91;77.56;98533.05;4399573;79;21184;-85
2021/05/01 19:25:12;;;;;;;80.20;52.80;;;;;;;11.89;77.62;98522.25;4414990;79;21635;-84
2021/05/01 19:31:14;;;;;;;80.70;52.33;;;;;;;11.82;77.79;98505.83;4404435;79;21185;-85
2021/05/01 19:37:16;;;;;;;80.42;51.88;;;;;;;11.79;78.07;98506.01;4402635;79;21187;-84
2021/05/01 19:43:19;;;;;;;68.75;47.38;;;;;;;11.80;78.33;98513.66;4410123;79;21187;-84
2021/05/01 19:49:20;;;;;;;69.07;46.28;;;;;;;11.80;78.33;98507.59;4407832;79;21180;-89
2021/05/01 19:55:22;;;;;;;65.22;43.55;;;;;;;11.78;78.39;98493.48;4405648;79;21334;-89
2021/05/01 20:01:24;;;;;;;64.50;44.13;;;;;;;11.85;78.73;98496.81;4411550;79;21361;-90
2021/05/01 20:07:25;;;;;;;71.37;44.33;;;;;;;11.88;78.77;98500.92;4417351;79;21652;-90
2021/05/01 20:13:27;;;;;;;65.60;39.70;;;;;;;11.87;78.84;98493.85;4407171;79;21649;-90
2021/05/01 20:19:29;;;;;;;75.70;49.30;;;;;;;11.90;78.76;98504.03;4411507;79;21192;-89
2021/05/01 20:25:30;;;;;;;79.65;49.10;;;;;;;11.87;78.73;98496.59;4291797;80;10000422;-89
2021/05/01 20:31:34;;;;;;;78.02;51.00;;;;;;;11.69;78.88;98471.76;4416004;80;21140;-89
2021/05/01 20:37:37;;;;;;;77.20;51.88;;;;;;;11.56;79.26;98457.65;4409054;80;21177;-89
2021/05/01 20:43:38;;;;;;;80.55;53.83;;;;;;;11.51;79.48;98446.31;4409334;80;21181;-88
2021/05/01 20:49:41;;;;;;;76.92;50.15;;;;;;;11.44;79.65;98432.61;4408911;80;21168;-89
2021/05/01 20:55:42;;;;;;;75.28;48.15;;;;;;;11.39;80.04;98426.15;4411005;79;21242;-90
2021/05/01 21:01:45;;;;;;;70.47;48.75;;;;;;;11.42;80.10;98423.41;4408447;79;21148;-89
2021/05/01 21:07:47;;;;;;;88.92;50.88;;;;;;;11.44;80.48;98416.95;4410102;79;21121;-89
2021/05/01 21:13:48;;;;;;;74.27;47.90;;;;;;;11.41;80.25;98397.19;4408297;80;21144;-89
2021/05/01 21:19:50;;;;;;;72.47;48.58;;;;;;;11.30;80.48;98400.53;4406345;80;21593;-89
2021/05/01 21:25:52;;;;;;;78.33;49.90;;;;;;;11.29;80.74;98398.95;4407403;80;21591;-90
2021/05/01 21:31:54;;;;;;;77.72;50.58;;;;;;;11.27;80.87;98393.10;4413237;80;21188;-89
2021/05/01 21:37:55;;;;;;;74.58;48.92;;;;;;;11.22;80.99;98387.22;4414754;80;21160;-89
2021/05/01 21:43:57;;;;;;;81.63;51.00;;;;;;;11.23;81.23;98381.95;4413185;80;21136;-89
2021/05/01 21:49:58;;;;;;;77.42;52.17;;;;;;;11.21;81.31;98371.97;4414266;80;21169;-89
2021/05/01 21:56:00;;;;;;;78.97;51.50;;;;;;;11.17;81.48;98359.64;4406962;80;21172;-88
2021/05/01 22:02:02;;;;;;;86.85;53.92;;;;;;;11.17;81.65;98349.27;4416789;80;21141;-89
2021/05/01 22:08:04;;;;;;;82.45;53.08;;;;;;;11.12;81.85;98340.86;4410781;80;21161;-89
2021/05/01 22:14:06;;;;;;;78.50;52.83;;;;;;;11.09;81.99;98341.07;4414319;80;21149;-90
2021/05/01 22:20:09;;;;;;;77.32;52.27;;;;;;;11.09;82.22;98335.59;4405972;80;21604;-89
2021/05/01 22:26:13;;;;;;;76.20;49.18;;;;;;;11.07;82.34;98316.02;4422600;80;21161;-89
2021/05/01 22:32:15;;;;;;;71.70;46.95;;;;;;;11.06;82.61;98309.57;4405428;80;21150;-88
2021/05/01 22:38:17;;;;;;;80.67;47.48;;;;;;;11.07;82.73;98300.95;4418189;80;21120;-89
2021/05/01 22:44:18;;;;;;;65.20;41.88;;;;;;;11.04;82.88;98283.95;4410228;80;21633;-89
2021/05/01 22:50:21;;;;;;;65.03;43.08;;;;;;;11.01;82.82;98279.84;4411594;80;21177;-88
2021/05/01 22:56:24;;;;;;;72.10;44.63;;;;;;;10.98;82.96;98268.30;4423986;80;21183;-88
2021/05/01 23:02:26;;;;;;;64.15;43.95;;;;;;;10.93;83.12;98267.36;4408223;80;21140;-89
2021/05/01 23:08:28;;;;;;;67.08;45.52;;;;;;;10.92;83.14;98252.09;4406012;80;21613;-88
2021/05/01 23:14:31;;;;;;;78.92;45.70;;;;;;;10.89;83.35;98257.78;4415314;80;21181;-88
2021/05/01 23:20:34;;;;;;;66.60;43.92;;;;;;;10.84;83.38;98249.17;4416556;80;21661;-88
2021/05/01 23:26:36;;;;;;;67.92;44.67;;;;;;;10.83;83.45;98251.72;4413154;80;21197;-88
2021/05/01 23:32:38;;;;;;;66.50;41.25;;;;;;;10.80;83.44;98225.14;4416008;80;21172;-89
2021/05/01 23:38:40;;;;;;;69.37;41.60;;;;;;;10.79;83.60;98216.73;4411305;79;21215;-88
2021/05/01 23:44:42;;;;;;;67.75;42.25;;;;;;;10.81;83.43;98206.95;4409500;80;21968;-90
2021/05/01 23:50:44;;;;;;;68.25;41.88;;;;;;;10.74;83.46;98193.26;4406818;80;21153;-88
2021/05/01 23:56:46;;;;;;;62.50;39.70;;;;;;;10.66;83.55;98172.58;4409729;80;21155;-87
